NY39 weather

Virgil Excavation Heliport
Rochester, New York, United States

Public forecast

Using degrees Fahrenheit for public forecast. Weather courtesy of forecast.io.

Closest aviation weather report (METAR) to Virgil Excavation Heliport

Closest report is Greater Rochester International Airport, 2.8 nm (5.1 km) ESE. Retrieved 2020/05/30 08:54 UTC (51 minutes ago):

KROC 300854Z 26005KT 10SM CLR 12/11 A2996 RMK AO2 SLP147 T01220111 51014

Closest aviation forecast (TAF) to Virgil Excavation Heliport

Closest forecast is Greater Rochester International Airport, 2.8 nm (5.1 km) ESE. Retrieved 2020/05/30 06:27 UTC (3 hours ago):

TAF KROC 300524Z 3006/3106 27010KT P6SM SCT050 FM300800 26006KT P6SM SKC FM301400 25008KT P6SM VCSH BKN040 FM301800 28012KT P6SM VCSH BKN035 FM302100 29015G23KT P6SM BKN050 FM310000 30013KT P6SM SCT060